createdAt,value
2019-05-18T00:00:42.182Z,79.06
2019-05-18T00:03:17.274Z,79.16
2019-05-18T00:05:52.405Z,79.48
2019-05-18T00:08:27.932Z,79.87
2019-05-18T00:11:03.185Z,79.77
2019-05-18T00:13:38.317Z,80.07
2019-05-18T00:16:16.830Z,80.35
2019-05-18T00:18:52.208Z,80.63
2019-05-18T00:21:27.321Z,80.91
2019-05-18T00:24:02.724Z,81.22
2019-05-18T00:26:37.955Z,81.02
2019-05-18T00:29:13.159Z,81.28
2019-05-18T00:31:48.302Z,81.53
2019-05-18T00:34:23.895Z,81.67
2019-05-18T00:37:00.955Z,81.84
2019-05-18T00:39:37.459Z,82.18
2019-05-18T00:42:12.652Z,82.29
2019-05-18T00:44:49.746Z,82.39
2019-05-18T00:47:40.080Z,82.46
2019-05-18T00:50:09.059Z,82.58
2019-05-18T00:52:44.533Z,82.76
2019-05-18T00:55:19.848Z,82.71
2019-05-18T00:57:54.942Z,82.81
2019-05-18T01:00:31.192Z,82.98
2019-05-18T01:03:06.355Z,83.14
2019-05-18T01:05:41.796Z,83.27
2019-05-18T01:08:16.932Z,83.43
2019-05-18T01:10:53.356Z,83.55
2019-05-18T01:13:28.687Z,83.57
2019-05-18T01:16:03.859Z,83.63
2019-05-18T01:18:42.331Z,83.89
2019-05-18T01:21:17.463Z,83.92
2019-05-18T01:23:52.717Z,84.18
2019-05-18T01:26:27.923Z,84.45
2019-05-18T01:29:04.124Z,84.55
2019-05-18T01:31:39.784Z,84.79
2019-05-18T01:34:15.117Z,84.91
2019-05-18T01:36:50.358Z,84.97
2019-05-18T01:39:26.584Z,85.02
2019-05-18T01:42:02.035Z,85.09
2019-05-18T01:44:39.904Z,85.32
2019-05-18T01:47:15.150Z,85.41
2019-05-18T01:49:50.325Z,85.49
2019-05-18T01:52:26.689Z,85.49
2019-05-18T01:55:02.763Z,85.52
2019-05-18T01:57:38.123Z,85.73
2019-05-18T02:00:17.115Z,85.82
2019-05-18T02:02:53.318Z,86.14
2019-05-18T02:05:28.533Z,86.19
2019-05-18T02:08:03.650Z,86.18
2019-05-18T02:10:38.726Z,86.56
2019-05-18T02:13:13.892Z,86.54
2019-05-18T02:15:50.111Z,86.61
2019-05-18T02:18:29.001Z,86.70
2019-05-18T02:21:02.930Z,86.63
2019-05-18T02:23:38.071Z,87.00
2019-05-18T02:26:13.346Z,87.04
2019-05-18T02:28:49.473Z,87.14
2019-05-18T02:31:24.834Z,87.31
2019-05-18T02:34:00.315Z,87.67
2019-05-18T02:36:35.706Z,87.25
2019-05-18T02:39:12.779Z,87.44
2019-05-18T02:41:49.977Z,87.84
2019-05-18T02:44:25.113Z,87.75
2019-05-18T02:47:00.294Z,87.82
2019-05-18T02:49:35.600Z,88.15
2019-05-18T02:52:11.172Z,88.24
2019-05-18T02:54:47.307Z,88.22
2019-05-18T02:57:23.853Z,88.45
2019-05-18T02:59:59.413Z,88.40
2019-05-18T03:02:34.507Z,88.56
2019-05-18T03:05:10.627Z,88.56
2019-05-18T03:07:46.112Z,88.65
2019-05-18T03:10:21.260Z,88.58
2019-05-18T03:12:57.742Z,88.54
2019-05-18T03:15:32.944Z,88.55
2019-05-18T03:18:08.107Z,88.64
2019-05-18T03:20:44.376Z,88.58
2019-05-18T03:23:20.578Z,88.75
2019-05-18T03:25:55.828Z,88.69
2019-05-18T03:28:35.728Z,88.76
2019-05-18T03:31:13.432Z,88.90
2019-05-18T03:33:48.584Z,88.77
2019-05-18T03:36:24.650Z,88.97
2019-05-18T03:38:59.798Z,88.96
2019-05-18T03:41:34.958Z,88.98
2019-05-18T03:44:11.730Z,88.92
2019-05-18T03:46:47.838Z,88.83
2019-05-18T03:49:27.062Z,88.82
2019-05-18T03:52:00.983Z,88.69
2019-05-18T03:54:37.750Z,88.63
2019-05-18T03:57:12.884Z,88.48
2019-05-18T03:59:52.589Z,88.33
2019-05-18T04:02:27.732Z,88.25
2019-05-18T04:05:04.513Z,88.13
2019-05-18T04:07:39.619Z,87.94
2019-05-18T04:10:14.770Z,87.68
2019-05-18T04:12:50.012Z,87.50
2019-05-18T04:15:25.288Z,87.46
2019-05-18T04:18:00.544Z,87.40
2019-05-18T04:20:36.749Z,87.18
2019-05-18T04:23:12.020Z,87.23
2019-05-18T04:25:51.079Z,87.06
2019-05-18T04:28:29.449Z,87.17
2019-05-18T04:31:04.905Z,87.10
2019-05-18T04:33:41.091Z,87.03
2019-05-18T04:36:16.230Z,86.82
2019-05-18T04:38:57.374Z,86.85
2019-05-18T04:41:32.512Z,86.60
2019-05-18T04:44:07.949Z,86.38
2019-05-18T04:46:44.728Z,86.44
2019-05-18T04:49:22.772Z,86.38
2019-05-18T04:51:57.938Z,86.49
2019-05-18T04:54:33.211Z,86.57
2019-05-18T04:57:08.366Z,86.56
2019-05-18T04:59:43.727Z,86.42
2019-05-18T05:02:19.941Z,86.33
2019-05-18T05:04:56.857Z,86.10
2019-05-18T05:07:32.189Z,85.92
2019-05-18T05:10:08.255Z,85.74
2019-05-18T05:12:43.594Z,85.32
2019-05-18T05:15:19.010Z,85.08
2019-05-18T05:17:59.148Z,84.73
2019-05-18T05:20:35.148Z,84.23
2019-05-18T05:23:13.980Z,83.82
2019-05-18T05:25:50.342Z,83.36
2019-05-18T05:28:30.220Z,82.53
2019-05-18T05:31:06.408Z,82.14
2019-05-18T05:33:42.438Z,81.42
2019-05-18T05:36:17.777Z,80.96
2019-05-18T05:38:54.805Z,80.63
2019-05-18T05:41:30.297Z,79.87
2019-05-18T05:44:07.416Z,79.43
2019-05-18T05:46:44.206Z,78.87
2019-05-18T05:49:19.648Z,78.62
2019-05-18T05:51:54.737Z,78.27
2019-05-18T05:54:30.437Z,77.91
2019-05-18T05:57:05.914Z,77.08
2019-05-18T05:59:41.210Z,76.76
2019-05-18T06:02:16.701Z,76.47
2019-05-18T06:04:51.806Z,76.01
2019-05-18T06:07:27.962Z,75.22
2019-05-18T06:10:03.290Z,74.45
2019-05-18T06:12:40.379Z,73.22
2019-05-18T06:15:15.639Z,72.94
2019-05-18T06:17:50.806Z,72.76
2019-05-18T06:20:27.277Z,71.72
2019-05-18T06:23:02.771Z,71.19
2019-05-18T06:25:38.037Z,70.15
2019-05-18T06:28:14.244Z,69.51
2019-05-18T06:30:49.666Z,66.43
2019-05-18T06:33:25.838Z,66.33
2019-05-18T06:36:01.127Z,64.60
2019-05-18T06:38:36.372Z,64.23
2019-05-18T06:41:11.698Z,62.54
2019-05-18T06:43:48.826Z,62.18
2019-05-18T06:46:25.011Z,61.81
2019-05-18T06:49:00.371Z,60.97
2019-05-18T06:51:35.897Z,60.56
2019-05-18T06:54:12.539Z,59.69
2019-05-18T06:56:47.998Z,59.65
2019-05-18T06:59:24.804Z,59.08
2019-05-18T07:02:00.136Z,58.66
2019-05-18T07:04:36.237Z,57.99
2019-05-18T07:07:13.322Z,57.32
2019-05-18T07:09:49.536Z,57.18
2019-05-18T07:12:25.756Z,56.40
2019-05-18T07:15:01.094Z,56.55
2019-05-18T07:17:36.599Z,56.55
2019-05-18T07:20:14.105Z,55.73
2019-05-18T07:22:50.309Z,55.69
2019-05-18T07:25:29.196Z,54.28
2019-05-18T07:28:04.690Z,54.08
2019-05-18T07:30:40.343Z,53.49
2019-05-18T07:33:15.504Z,52.83
2019-05-18T07:35:53.819Z,50.55
2019-05-18T07:38:29.028Z,47.17
2019-05-18T07:41:04.507Z,43.75
2019-05-18T07:43:40.564Z,40.28
2019-05-18T07:46:17.951Z,39.16
2019-05-18T07:48:54.501Z,37.98
2019-05-18T07:51:48.725Z,33.75
2019-05-18T07:54:32.800Z,33.81
2019-05-18T07:57:09.592Z,33.87
2019-05-18T07:59:48.396Z,30.78
2019-05-18T08:02:27.369Z,30.89
2019-05-18T08:05:04.025Z,29.31
2019-05-18T08:07:44.611Z,29.79
2019-05-18T08:10:38.818Z,29.79
2019-05-18T08:13:21.089Z,30.04
2019-05-18T08:15:59.809Z,29.97
2019-05-18T08:18:38.341Z,30.74
2019-05-18T08:21:16.296Z,29.22
2019-05-18T08:23:59.025Z,28.67
2019-05-18T08:26:36.902Z,29.77
2019-05-18T08:29:22.791Z,29.50
2019-05-18T08:32:01.065Z,29.21
2019-05-18T08:34:43.037Z,29.00
2019-05-18T08:37:20.512Z,28.33
2019-05-18T08:40:00.590Z,28.96
2019-05-18T08:42:40.907Z,28.90
2019-05-18T08:45:17.616Z,29.46
2019-05-18T08:47:54.388Z,27.24
2019-05-18T08:50:36.955Z,27.34
2019-05-18T08:53:23.988Z,27.61
2019-05-18T08:56:03.564Z,27.95
2019-05-18T08:58:42.078Z,28.33
2019-05-18T09:01:21.029Z,29.12
2019-05-18T09:04:00.322Z,27.40
2019-05-18T09:06:39.754Z,27.71
2019-05-18T09:09:18.832Z,27.93
2019-05-18T09:12:06.618Z,27.38
2019-05-18T09:14:46.289Z,25.38
2019-05-18T09:17:26.242Z,24.29
2019-05-18T09:20:10.525Z,23.99
2019-05-18T09:22:48.507Z,24.74
2019-05-18T09:25:29.558Z,25.57
2019-05-18T09:28:12.446Z,24.77
2019-05-18T09:30:52.569Z,26.88
2019-05-18T09:33:30.924Z,25.18
2019-05-18T09:36:10.989Z,24.35
2019-05-18T09:39:01.903Z,24.56
2019-05-18T09:41:42.655Z,24.05
2019-05-18T09:44:18.322Z,24.66
2019-05-18T09:46:57.191Z,23.68
2019-05-18T09:49:34.171Z,23.54
2019-05-18T09:52:09.992Z,23.63
2019-05-18T09:55:08.450Z,23.43
2019-05-18T09:57:50.319Z,25.25
2019-05-18T10:00:28.281Z,24.36
2019-05-18T10:03:09.193Z,24.64
2019-05-18T10:05:45.953Z,25.03
2019-05-18T10:08:21.644Z,23.53
2019-05-18T10:10:58.485Z,23.81
2019-05-18T10:13:42.474Z,23.26
2019-05-18T10:16:25.987Z,21.68
2019-05-18T10:19:06.678Z,22.28
2019-05-18T10:21:46.385Z,21.98
2019-05-18T10:24:27.338Z,21.19
2019-05-18T10:27:05.625Z,22.63
2019-05-18T10:29:46.655Z,22.95
2019-05-18T10:32:22.814Z,23.10
2019-05-18T10:35:03.866Z,22.26
2019-05-18T10:37:47.742Z,22.97
2019-05-18T10:40:25.924Z,24.55
2019-05-18T10:43:05.760Z,25.70
2019-05-18T10:45:51.828Z,26.86
2019-05-18T10:48:30.661Z,25.52
2019-05-18T10:51:10.505Z,24.99
2019-05-18T10:54:17.049Z,26.06
2019-05-18T10:56:55.639Z,27.56
2019-05-18T10:59:33.154Z,28.24
2019-05-18T11:02:10.838Z,26.92
2019-05-18T11:04:50.992Z,26.57
2019-05-18T11:07:29.517Z,27.94
2019-05-18T11:10:10.820Z,29.33
2019-05-18T11:13:01.291Z,29.79
2019-05-18T11:18:30.380Z,31.03
2019-05-18T11:21:21.811Z,30.48
2019-05-18T11:26:54.552Z,31.50
2019-05-18T11:29:44.178Z,32.47
2019-05-18T11:32:24.638Z,32.19
2019-05-18T11:35:11.987Z,30.58
2019-05-18T11:37:54.618Z,30.22
2019-05-18T11:43:32.433Z,31.06
2019-05-18T11:46:12.166Z,31.97
2019-05-18T11:48:52.541Z,32.03
2019-05-18T11:51:39.392Z,31.19
2019-05-18T11:54:20.503Z,30.23
2019-05-18T11:56:59.568Z,29.52
2019-05-18T11:59:39.332Z,30.49
2019-05-18T12:02:14.439Z,29.71
2019-05-18T12:05:01.726Z,27.20
2019-05-18T12:07:58.743Z,25.54
2019-05-18T12:10:43.771Z,25.60
2019-05-18T12:13:30.142Z,26.57
2019-05-18T12:16:23.929Z,27.91
2019-05-18T12:19:08.022Z,28.37
2019-05-18T12:21:44.813Z,26.26
2019-05-18T12:24:25.428Z,24.79
2019-05-18T12:27:10.838Z,25.77
2019-05-18T12:29:56.836Z,25.56
2019-05-18T12:32:47.379Z,25.63
2019-05-18T12:35:28.160Z,24.60
2019-05-18T12:38:11.894Z,21.93
2019-05-18T12:47:30.467Z,23.17
2019-05-18T12:59:42.964Z,19.00
2019-05-18T13:02:44.351Z,19.00
2019-05-18T13:30:02.799Z,16.91
2019-05-18T14:25:57.054Z,14.95
2019-05-18T14:28:42.319Z,16.95
2019-05-18T14:31:27.641Z,19.20
2019-05-18T14:34:17.807Z,20.04
2019-05-18T14:37:17.868Z,19.39
2019-05-18T14:39:54.170Z,18.78
2019-05-18T14:43:02.987Z,18.18
2019-05-18T14:45:51.836Z,17.07
2019-05-18T14:58:24.204Z,15.57
2019-05-18T15:39:46.965Z,16.60
2019-05-18T15:42:35.441Z,16.34
2019-05-18T15:48:23.103Z,15.32
2019-05-18T15:51:01.858Z,16.02
2019-05-18T15:53:45.726Z,15.85
2019-05-18T15:56:25.004Z,16.03
2019-05-18T15:59:00.849Z,16.28
2019-05-18T16:01:45.608Z,17.33
2019-05-18T16:04:30.836Z,17.99
2019-05-18T16:07:12.950Z,18.26
2019-05-18T16:10:06.293Z,18.07
2019-05-18T16:19:49.796Z,17.54
2019-05-18T16:25:36.928Z,17.15
2019-05-18T16:28:20.176Z,17.78
2019-05-18T16:31:04.292Z,17.10
2019-05-18T16:33:46.890Z,17.03
2019-05-18T16:36:32.608Z,17.13
2019-05-18T16:39:19.142Z,17.38
2019-05-18T16:42:02.202Z,17.36
2019-05-18T16:44:45.496Z,17.17
2019-05-18T16:50:26.616Z,17.99
2019-05-18T16:53:09.888Z,18.18
2019-05-18T16:55:47.700Z,18.18
2019-05-18T16:58:30.259Z,18.57
2019-05-18T17:01:23.426Z,19.02
2019-05-18T17:04:29.220Z,19.13
2019-05-18T17:10:50.115Z,19.55
2019-05-18T17:13:38.365Z,19.66
2019-05-18T17:16:34.289Z,19.78
2019-05-18T17:19:17.730Z,19.82
2019-05-18T17:25:29.544Z,21.38
2019-05-18T17:28:05.535Z,23.02
2019-05-18T17:30:44.923Z,24.12
2019-05-18T17:33:22.884Z,24.89
2019-05-18T17:36:00.622Z,25.62
2019-05-18T17:38:37.355Z,26.11
2019-05-18T17:41:15.003Z,26.37
2019-05-18T17:43:56.030Z,26.96
2019-05-18T17:46:34.395Z,27.12
2019-05-18T17:49:26.772Z,27.67
2019-05-18T17:52:12.680Z,28.05
2019-05-18T17:54:52.778Z,28.29
2019-05-18T17:57:51.678Z,28.74
2019-05-18T18:00:37.676Z,28.94
2019-05-18T18:03:16.689Z,29.35
2019-05-18T18:05:58.643Z,29.71
2019-05-18T18:08:35.668Z,30.29
2019-05-18T18:11:22.953Z,30.50
2019-05-18T18:14:08.808Z,30.82
2019-05-18T18:16:56.519Z,31.08
2019-05-18T18:19:33.701Z,33.02
2019-05-18T18:22:11.421Z,33.22
2019-05-18T18:24:55.210Z,33.64
2019-05-18T18:27:32.317Z,33.80
2019-05-18T18:30:10.964Z,34.12
2019-05-18T18:32:49.051Z,35.70
2019-05-18T18:35:30.845Z,35.56
2019-05-18T18:38:10.110Z,36.94
2019-05-18T18:40:49.209Z,38.71
2019-05-18T18:43:34.516Z,38.18
2019-05-18T18:46:10.775Z,38.51
2019-05-18T18:52:04.627Z,38.34
2019-05-18T18:54:42.852Z,39.59
2019-05-18T18:57:21.803Z,39.92
2019-05-18T19:00:05.757Z,40.48
2019-05-18T19:02:57.484Z,41.95
2019-05-18T19:05:53.899Z,42.32
2019-05-18T19:08:36.712Z,42.66
2019-05-18T19:11:17.373Z,43.25
2019-05-18T19:13:52.491Z,44.29
2019-05-18T19:16:36.171Z,44.54
2019-05-18T19:19:13.629Z,45.26
2019-05-18T19:21:50.927Z,45.26
2019-05-18T19:24:30.840Z,46.12
2019-05-18T19:27:09.873Z,46.12
2019-05-18T19:29:48.255Z,47.40
2019-05-18T19:32:26.932Z,48.35
2019-05-18T19:35:10.523Z,48.54
2019-05-18T19:37:48.402Z,48.78
2019-05-18T19:40:27.731Z,49.00
2019-05-18T19:43:04.247Z,49.25
2019-05-18T19:45:39.947Z,48.63
2019-05-18T19:48:17.112Z,49.20
2019-05-18T19:50:55.154Z,49.44
2019-05-18T19:53:30.596Z,50.29
2019-05-18T19:56:07.067Z,49.95
2019-05-18T19:58:43.709Z,50.78
2019-05-18T20:01:19.245Z,51.00
2019-05-18T20:03:54.449Z,49.95
2019-05-18T20:06:31.437Z,51.68
2019-05-18T20:09:07.247Z,50.36
2019-05-18T20:11:42.410Z,50.43
2019-05-18T20:14:17.862Z,51.28
2019-05-18T20:16:52.965Z,51.09
2019-05-18T20:19:38.787Z,51.07
2019-05-18T20:22:06.635Z,51.67
2019-05-18T20:24:45.213Z,51.95
2019-05-18T20:27:22.439Z,52.63
2019-05-18T20:29:57.738Z,52.27
2019-05-18T20:32:36.626Z,53.49
2019-05-18T20:35:13.722Z,53.15
2019-05-18T20:37:54.492Z,53.18
2019-05-18T20:40:35.647Z,53.74
2019-05-18T20:43:14.827Z,53.60
2019-05-18T20:45:50.088Z,53.48
2019-05-18T20:48:27.196Z,53.86
2019-05-18T20:51:03.283Z,54.27
2019-05-18T20:53:41.083Z,54.19
2019-05-18T20:56:17.368Z,55.17
2019-05-18T20:58:53.789Z,55.51
2019-05-18T21:01:29.088Z,55.57
2019-05-18T21:04:05.108Z,55.62
2019-05-18T21:06:41.200Z,55.86
2019-05-18T21:09:16.353Z,56.07
2019-05-18T21:11:52.810Z,56.93
2019-05-18T21:14:28.872Z,57.37
2019-05-18T21:17:03.974Z,57.51
2019-05-18T21:19:39.103Z,57.16
2019-05-18T21:22:14.693Z,57.50
2019-05-18T21:24:50.829Z,57.72
2019-05-18T21:27:27.039Z,58.33
2019-05-18T21:30:02.283Z,58.35
2019-05-18T21:32:39.087Z,57.78
2019-05-18T21:35:19.387Z,58.67
2019-05-18T21:37:56.605Z,58.63
2019-05-18T21:40:31.883Z,59.06
2019-05-18T21:43:07.163Z,59.52
2019-05-18T21:46:11.262Z,60.07
2019-05-18T21:48:58.067Z,59.77
2019-05-18T21:51:52.912Z,59.88
2019-05-18T21:54:39.028Z,59.30
2019-05-18T21:57:19.978Z,59.77
2019-05-18T21:59:56.365Z,59.93
2019-05-18T22:02:31.515Z,60.56
2019-05-18T22:05:11.727Z,60.68
2019-05-18T22:07:54.199Z,61.33
2019-05-18T22:10:34.125Z,60.80
2019-05-18T22:13:09.638Z,60.52
2019-05-18T22:15:48.290Z,60.75
2019-05-18T22:18:25.092Z,62.37
2019-05-18T22:21:00.502Z,62.22
2019-05-18T22:23:42.823Z,61.51
2019-05-18T22:26:18.291Z,60.87
2019-05-18T22:28:55.932Z,60.47
2019-05-18T22:31:31.635Z,59.70
2019-05-18T22:34:10.146Z,57.38
2019-05-18T22:36:46.392Z,57.90
2019-05-18T22:39:26.645Z,58.29
2019-05-18T22:42:04.485Z,58.18
2019-05-18T22:44:42.587Z,57.46
2019-05-18T22:47:19.217Z,57.36
2019-05-18T22:49:54.432Z,57.59
2019-05-18T22:52:33.546Z,57.14
2019-05-18T22:55:12.587Z,58.29
2019-05-18T22:57:49.245Z,59.20
2019-05-18T23:04:09.174Z,59.33
2019-05-18T23:06:48.775Z,59.43
2019-05-18T23:09:29.233Z,59.37
2019-05-18T23:12:08.276Z,59.80
2019-05-18T23:14:43.409Z,60.23
2019-05-18T23:17:21.348Z,60.18
2019-05-18T23:20:01.109Z,60.64
2019-05-18T23:22:36.574Z,61.08
2019-05-18T23:25:11.753Z,60.91
2019-05-18T23:27:47.124Z,60.55
2019-05-18T23:30:23.491Z,60.75
2019-05-18T23:33:00.302Z,61.22
2019-05-18T23:35:35.952Z,61.46
2019-05-18T23:38:12.981Z,61.57
2019-05-18T23:40:48.656Z,61.70
2019-05-18T23:43:25.065Z,62.29
2019-05-18T23:46:04.172Z,62.30
2019-05-18T23:48:41.051Z,62.04
2019-05-18T23:51:18.106Z,62.12
2019-05-18T23:53:54.043Z,62.63
2019-05-18T23:56:29.541Z,62.83
2019-05-18T23:59:05.824Z,63.50
